El Paso, TX (88533)

7:54 PM MST on February 21, 2017 (GMT -0700)
Manhattan | | Change Station
Active Advisory: Fire Weather Watch

Elev 4550 ft 31.80 °N, 106.46 °W | Updated 1 minute ago

Clear
Clear
68.5 °F
Feels Like 68.5 °F
N
5.8
Wind Variable Wind from SW

Today
High -- | Low -- °F
--% Chance of Precip.
Yesterday
High -- | Low -- °F
Precip. -- in
Pressure 30.08 in
Visibility 10.0 miles
Clouds Clear
Dew Point 36 °F
Humidity 30%
Rainfall 0.00 in
Snow Depth Not available.
6:41 AM 5:57 PM
Waning Crescent, 21% visible
METAR KELP 220151Z 22008KT 10SM CLR 19/M01 A3018 RMK AO2 SLP186 T01941006
Pressure 30.08 in
Visibility 10.0 miles
Clouds Clear
Dew Point 36 °F
Humidity 30%
Rainfall 0.00 in
Snow Depth Not available.
6:41 AM 5:57 PM
Waning Crescent, 21% visible
METAR KELP 220151Z 22008KT 10SM CLR 19/M01 A3018 RMK AO2 SLP186 T01941006

Get Your Daily Forecast Email!

Thanks for signing up!

Be on the lookout for a verification email in your inbox.

You'll start receiving the daily forecast at 8 AM.

×

10-Day Weather Forecast

Almanac

Astronomy

Feb. 21, 2017 Rise Set
Actual Time
Civil Twilight
Nautical Twilight
Astronomical Twilight
Moon
Length of Visible Light
Length of Day
Tomorrow will be .
, % of the Moon is Illuminated

Today's Extremes

State Highs State Lows

Community

WunderPhotos

Upload Photos

1,962,540 photos uploaded!

WunderBlog® & News

Nearby

Air Quality

  Air Quality AQ Index Pollutant
Not available.

Snow Depth

Station Depth Elevation

Earthquake Activity

City Distance Mag. Time & Date
Minimum magnitude displayed is 2.5.

Coastal Water Temperatures

Place Temperature

Stations

Nearby Weather Stations

Station Location Temp. Windchill Dew Point Humidity Wind Precip. Elev Updated Type
                   

Watches & Warnings

Fire Weather Watch
Issued: 1:55 PM MST Feb. 21, 2017 – National Weather Service

... Fire Weather Watch remains in effect from Thursday morning
through Thursday evening for strong winds and low relative
humidities for fire weather zones 055, 056, 111, and 112...

* affected area... fire weather zones 111, 112, 055 and 056.

* 20-foot wind... 20 to 30 mph with gusts to 45 mph.

* Humidity... 10 to 15 percent.

* Impacts... any fires that develop will likely spread rapidly.
Outdoor burning is not recommended.

Precautionary/preparedness actions...

A Fire Weather Watch means that critical fire weather conditions
are forecast to occur. Listen for later forecasts and possible
red flag warnings.


26